createdAt,value
2022-08-11T00:03:21.377Z,48.02
2022-08-11T00:05:57.051Z,49.34
2022-08-11T00:08:33.110Z,49.44
2022-08-11T00:11:09.420Z,49.68
2022-08-11T00:13:45.580Z,49.71
2022-08-11T00:16:21.911Z,49.64
2022-08-11T00:18:57.820Z,49.76
2022-08-11T00:21:54.762Z,49.78
2022-08-11T00:24:08.720Z,49.95
2022-08-11T00:26:42.083Z,50.17
2022-08-11T00:29:15.764Z,50.12
2022-08-11T00:31:51.985Z,50.22
2022-08-11T00:34:28.935Z,50.62
2022-08-11T00:37:05.189Z,50.59
2022-08-11T00:39:46.882Z,50.55
2022-08-11T00:42:24.031Z,50.64
2022-08-11T00:45:06.612Z,50.68
2022-08-11T00:47:53.910Z,50.56
2022-08-11T00:50:32.444Z,50.79
2022-08-11T00:53:29.036Z,50.59
2022-08-11T00:56:45.680Z,50.74
2022-08-11T01:02:10.450Z,49.56
2022-08-11T01:05:29.713Z,50.90
2022-08-11T01:08:32.820Z,51.05
2022-08-11T01:12:06.460Z,50.74
2022-08-11T01:18:48.121Z,47.67
2022-08-11T01:22:12.520Z,50.92
2022-08-11T01:25:17.193Z,51.30
2022-08-11T01:28:35.271Z,51.08
2022-08-11T01:31:49.089Z,51.29
2022-08-11T01:34:44.018Z,51.45
2022-08-11T01:37:44.651Z,51.55
2022-08-11T01:40:30.571Z,51.63
2022-08-11T01:43:37.834Z,51.59
2022-08-11T01:46:14.822Z,51.96
2022-08-11T01:48:52.743Z,51.78
2022-08-11T01:51:26.987Z,52.13
2022-08-11T01:54:04.868Z,47.43
2022-08-11T01:56:58.364Z,51.56
2022-08-11T01:59:35.807Z,52.02
2022-08-11T02:02:54.247Z,52.23
2022-08-11T02:05:36.081Z,52.30
2022-08-11T02:08:17.660Z,52.13
2022-08-11T02:11:12.937Z,52.45
2022-08-11T02:13:55.147Z,52.47
2022-08-11T02:16:37.193Z,52.67
2022-08-11T02:19:32.395Z,52.66
2022-08-11T02:22:26.096Z,53.08
2022-08-11T02:25:02.528Z,52.86
2022-08-11T02:30:25.656Z,52.00
2022-08-11T02:33:19.010Z,53.33
2022-08-11T02:36:00.200Z,53.26
2022-08-11T02:38:36.741Z,53.30
2022-08-11T02:41:31.838Z,53.35
2022-08-11T02:44:13.725Z,53.58
2022-08-11T02:50:03.471Z,52.39
2022-08-11T02:52:33.077Z,53.55
2022-08-11T02:55:44.467Z,48.67
2022-08-11T02:58:03.884Z,52.60
2022-08-11T03:00:40.073Z,53.18
2022-08-11T03:03:19.222Z,53.55
2022-08-11T03:05:57.860Z,53.60
2022-08-11T03:08:47.768Z,53.82
2022-08-11T03:12:06.376Z,53.80
2022-08-11T03:17:28.461Z,53.59
2022-08-11T03:20:09.902Z,54.42
2022-08-11T03:22:49.898Z,56.11
2022-08-11T03:25:31.856Z,55.58
2022-08-11T03:30:57.395Z,54.71
2022-08-11T03:33:50.948Z,55.50
2022-08-11T03:36:33.309Z,55.24
2022-08-11T03:39:13.442Z,54.96
2022-08-11T03:42:05.293Z,54.83
2022-08-11T03:47:53.452Z,53.02
2022-08-11T03:50:32.918Z,59.16
2022-08-11T03:53:12.918Z,56.38
2022-08-11T03:56:10.167Z,55.38
2022-08-11T03:59:17.299Z,54.67
2022-08-11T04:02:48.204Z,54.59
2022-08-11T04:06:16.099Z,54.81
2022-08-11T04:09:05.929Z,54.27
2022-08-11T04:15:34.701Z,52.63
2022-08-11T04:18:22.103Z,53.84
2022-08-11T04:21:22.761Z,54.03
2022-08-11T04:28:04.803Z,52.81
2022-08-11T04:30:45.774Z,54.14
2022-08-11T04:33:56.602Z,53.77
2022-08-11T04:37:06.481Z,54.19
2022-08-11T04:39:58.582Z,53.78
2022-08-11T04:43:18.948Z,54.06
2022-08-11T04:46:36.165Z,54.01
2022-08-11T04:49:42.781Z,53.59
2022-08-11T04:52:59.717Z,50.42
2022-08-11T04:56:08.396Z,53.00
2022-08-11T04:59:11.282Z,53.24
2022-08-11T05:01:51.277Z,53.25
2022-08-11T05:08:24.239Z,52.30
2022-08-11T05:11:18.557Z,53.12
2022-08-11T05:14:12.027Z,52.94
2022-08-11T05:17:05.875Z,53.01
2022-08-11T05:19:57.432Z,53.08
2022-08-11T05:22:50.279Z,52.99
2022-08-11T05:26:43.242Z,52.96
2022-08-11T05:31:24.199Z,52.83
2022-08-11T05:34:17.479Z,52.84
2022-08-11T05:37:17.178Z,52.78
2022-08-11T05:39:52.033Z,52.86
2022-08-11T05:42:44.774Z,52.84
2022-08-11T05:45:57.263Z,52.52
2022-08-11T05:48:30.689Z,52.27
2022-08-11T05:51:30.603Z,52.33
2022-08-11T05:56:47.558Z,51.90
2022-08-11T06:06:15.035Z,51.40
2022-08-11T06:09:00.135Z,51.23
2022-08-11T06:11:43.779Z,50.89
2022-08-11T06:14:12.315Z,50.83
2022-08-11T06:16:47.702Z,50.72
2022-08-11T06:19:24.102Z,50.63
2022-08-11T06:21:57.693Z,50.47
2022-08-11T06:24:32.590Z,50.21
2022-08-11T06:27:12.801Z,49.95
2022-08-11T06:29:55.395Z,50.00
2022-08-11T06:32:27.666Z,49.74
2022-08-11T06:35:21.894Z,49.63
2022-08-11T06:38:06.460Z,49.39
2022-08-11T06:40:47.352Z,49.14
2022-08-11T06:43:23.378Z,49.15
2022-08-11T06:46:01.749Z,48.69
2022-08-11T06:48:37.769Z,48.39
2022-08-11T06:51:13.456Z,47.65
2022-08-11T06:53:57.603Z,46.45
2022-08-11T06:56:45.497Z,44.30
2022-08-11T06:59:39.737Z,40.98
2022-08-11T07:02:39.157Z,37.15
2022-08-11T07:05:24.163Z,33.78
2022-08-11T07:09:00.940Z,31.39
2022-08-11T07:12:40.481Z,28.88
2022-08-11T07:16:11.441Z,27.38
2022-08-11T07:18:27.549Z,26.35
2022-08-11T07:22:01.972Z,25.09
2022-08-11T07:24:34.256Z,23.99
2022-08-11T07:27:33.617Z,22.74
2022-08-11T07:30:08.127Z,22.10
2022-08-11T07:32:45.595Z,20.88
2022-08-11T07:35:24.764Z,21.11
2022-08-11T07:38:05.795Z,20.99
2022-08-11T07:40:43.401Z,20.42
2022-08-11T07:43:21.039Z,20.21
2022-08-11T07:46:30.395Z,19.28
2022-08-11T07:52:02.940Z,18.20
2022-08-11T07:54:37.920Z,17.57
2022-08-11T07:57:59.479Z,16.83
2022-08-11T08:00:25.688Z,16.82
2022-08-11T08:03:20.496Z,17.54
2022-08-11T08:06:15.371Z,16.42
2022-08-11T08:09:06.509Z,16.80
2022-08-11T08:12:05.793Z,16.63
2022-08-11T08:15:02.236Z,15.36
2022-08-11T08:18:20.903Z,15.46
2022-08-11T08:20:55.780Z,15.49
2022-08-11T08:23:42.664Z,14.22
2022-08-11T08:26:48.345Z,13.99
2022-08-11T08:29:49.298Z,17.70
2022-08-11T08:32:52.104Z,12.75
2022-08-11T08:35:54.564Z,13.91
2022-08-11T08:38:22.393Z,17.53
2022-08-11T08:40:56.875Z,16.85
2022-08-11T08:43:32.552Z,17.21
2022-08-11T08:46:08.745Z,17.13
2022-08-11T08:48:43.821Z,17.39
2022-08-11T08:51:58.789Z,17.41
2022-08-11T08:54:12.966Z,16.72
2022-08-11T08:56:50.323Z,19.52
2022-08-11T08:59:26.537Z,18.46
2022-08-11T09:02:06.206Z,19.87
2022-08-11T09:04:42.776Z,20.29
2022-08-11T09:07:18.671Z,18.01
2022-08-11T09:10:00.142Z,15.62
2022-08-11T09:12:52.129Z,15.42
2022-08-11T09:15:33.743Z,17.76
2022-08-11T09:18:11.487Z,19.99
2022-08-11T09:24:07.675Z,23.28
2022-08-11T09:27:04.225Z,22.67
2022-08-11T09:29:44.327Z,23.55
2022-08-11T09:32:22.367Z,23.53
2022-08-11T09:34:58.270Z,23.81
2022-08-11T09:37:59.673Z,25.16
2022-08-11T09:40:36.041Z,25.12
2022-08-11T09:43:30.433Z,25.46
2022-08-11T09:46:05.674Z,24.30
2022-08-11T09:48:43.457Z,25.00
2022-08-11T11:14:46.058Z,20.92
2022-08-11T11:17:38.713Z,19.26
2022-08-11T11:22:57.875Z,20.92
2022-08-11T11:25:57.268Z,21.08
2022-08-11T11:28:37.102Z,21.29
2022-08-11T11:31:15.645Z,21.17
2022-08-11T11:34:12.528Z,20.54
2022-08-11T11:39:28.447Z,18.93
2022-08-11T11:42:04.553Z,17.75
2022-08-11T11:44:40.291Z,16.77
2022-08-11T11:47:16.168Z,16.00
2022-08-11T11:49:51.131Z,15.15
2022-08-11T11:52:25.734Z,14.11
2022-08-11T11:55:00.685Z,12.78
2022-08-11T11:57:59.054Z,12.19
2022-08-11T12:00:49.741Z,12.15
2022-08-11T12:03:23.447Z,12.90
2022-08-11T12:05:57.498Z,13.43
2022-08-11T12:08:31.660Z,13.72
2022-08-11T12:11:24.655Z,13.65
2022-08-11T12:14:02.581Z,12.91
2022-08-11T12:16:40.308Z,11.94
2022-08-11T12:19:13.857Z,11.95
2022-08-11T12:22:05.266Z,15.17
2022-08-11T12:25:02.335Z,12.11
2022-08-11T12:27:38.873Z,12.33
2022-08-11T12:30:13.004Z,12.41
2022-08-11T12:32:47.562Z,12.91
2022-08-11T12:35:21.007Z,12.70
2022-08-11T12:38:03.711Z,12.90
2022-08-11T12:41:15.128Z,12.99
2022-08-11T12:43:44.363Z,13.06
2022-08-11T12:46:23.144Z,13.22
2022-08-11T12:49:19.652Z,13.53
2022-08-11T12:52:14.495Z,13.61
2022-08-11T12:54:42.320Z,13.54
2022-08-11T12:57:36.872Z,12.70
2022-08-11T13:00:30.443Z,13.08
2022-08-11T13:03:23.934Z,13.12
2022-08-11T13:05:59.194Z,12.38
2022-08-11T13:08:35.742Z,12.09
2022-08-11T13:11:57.017Z,11.82
2022-08-11T13:14:01.699Z,15.44
2022-08-11T13:16:40.091Z,12.67
2022-08-11T13:19:13.889Z,11.95
2022-08-11T13:21:48.130Z,11.77
2022-08-11T13:24:26.328Z,11.61
2022-08-11T13:27:03.411Z,11.91
2022-08-11T13:29:37.632Z,11.93
2022-08-11T13:32:13.575Z,11.87
2022-08-11T13:34:48.241Z,12.20
2022-08-11T13:38:19.782Z,12.19
2022-08-11T13:39:59.838Z,11.94
2022-08-11T13:42:35.062Z,11.98
2022-08-11T13:45:11.089Z,12.08
2022-08-11T13:47:48.889Z,11.89
2022-08-11T13:50:24.652Z,11.87
2022-08-11T13:52:58.255Z,12.62
2022-08-11T13:55:36.535Z,13.02
2022-08-11T13:58:19.303Z,13.36
2022-08-11T14:00:52.660Z,13.15
2022-08-11T14:06:13.228Z,13.92
2022-08-11T14:08:47.679Z,13.93
2022-08-11T14:12:22.666Z,14.21
2022-08-11T14:14:19.530Z,14.61
2022-08-11T14:19:40.184Z,14.69
2022-08-11T14:22:16.479Z,14.32
2022-08-11T14:24:51.364Z,14.27
2022-08-11T14:28:30.971Z,14.50
2022-08-11T14:30:08.999Z,14.63
2022-08-11T14:32:55.312Z,14.55
2022-08-11T14:35:17.982Z,14.46
2022-08-11T14:37:55.080Z,14.46
2022-08-11T14:40:46.148Z,14.86
2022-08-11T14:44:12.319Z,14.37
2022-08-11T14:49:10.852Z,14.57
2022-08-11T14:51:49.126Z,15.76
2022-08-11T14:54:46.135Z,15.77
2022-08-11T14:57:54.383Z,15.60
2022-08-11T15:03:11.414Z,15.16
2022-08-11T15:05:56.252Z,14.82
2022-08-11T15:08:40.369Z,15.23
2022-08-11T15:11:34.443Z,15.37
2022-08-11T15:14:17.445Z,15.58
2022-08-11T15:17:12.394Z,16.01
2022-08-11T15:20:08.123Z,16.58
2022-08-11T15:23:07.070Z,16.57
2022-08-11T15:25:42.216Z,17.00
